sensor_id;sensor_type;location;lat;lon;timestamp;P1;durP1;ratioP1;P2;durP2;ratioP2
56794;SDS011;42678;59.400;18.410;2022-09-13T00:01:46;3.90;;;1.40;;
56794;SDS011;42678;59.400;18.410;2022-09-13T00:04:11;2.83;;;1.65;;
56794;SDS011;42678;59.400;18.410;2022-09-13T00:06:37;3.42;;;2.10;;
56794;SDS011;42678;59.400;18.410;2022-09-13T00:09:04;5.75;;;1.85;;
56794;SDS011;42678;59.400;18.410;2022-09-13T00:11:29;3.47;;;1.60;;
56794;SDS011;42678;59.400;18.410;2022-09-13T00:13:56;3.30;;;1.73;;
56794;SDS011;42678;59.400;18.410;2022-09-13T00:16:23;3.70;;;1.80;;
56794;SDS011;42678;59.400;18.410;2022-09-13T00:18:51;4.45;;;2.25;;
56794;SDS011;42678;59.400;18.410;2022-09-13T00:21:18;3.85;;;2.03;;
56794;SDS011;42678;59.400;18.410;2022-09-13T00:23:46;1.73;;;1.60;;
56794;SDS011;42678;59.400;18.410;2022-09-13T00:26:17;4.38;;;1.73;;
56794;SDS011;42678;59.400;18.410;2022-09-13T00:28:47;5.07;;;2.42;;
56794;SDS011;42678;59.400;18.410;2022-09-13T00:31:15;5.35;;;1.70;;
56794;SDS011;42678;59.400;18.410;2022-09-13T00:33:42;2.22;;;1.50;;
56794;SDS011;42678;59.400;18.410;2022-09-13T00:36:09;2.92;;;1.85;;
56794;SDS011;42678;59.400;18.410;2022-09-13T00:38:39;1.92;;;1.52;;
56794;SDS011;42678;59.400;18.410;2022-09-13T00:41:07;3.42;;;1.80;;
56794;SDS011;42678;59.400;18.410;2022-09-13T00:43:55;2.92;;;1.65;;
56794;SDS011;42678;59.400;18.410;2022-09-13T00:48:52;3.45;;;2.08;;
56794;SDS011;42678;59.400;18.410;2022-09-13T00:51:21;7.25;;;1.65;;
56794;SDS011;42678;59.400;18.410;2022-09-13T00:53:48;1.58;;;1.30;;
56794;SDS011;42678;59.400;18.410;2022-09-13T00:56:18;4.88;;;1.75;;
56794;SDS011;42678;59.400;18.410;2022-09-13T00:58:57;4.20;;;1.52;;
56794;SDS011;42678;59.400;18.410;2022-09-13T01:01:28;4.03;;;1.83;;
56794;SDS011;42678;59.400;18.410;2022-09-13T01:04:02;2.67;;;2.05;;
56794;SDS011;42678;59.400;18.410;2022-09-13T01:06:29;3.35;;;1.48;;
56794;SDS011;42678;59.400;18.410;2022-09-13T01:08:57;3.92;;;1.83;;
56794;SDS011;42678;59.400;18.410;2022-09-13T01:11:34;2.38;;;1.60;;
56794;SDS011;42678;59.400;18.410;2022-09-13T01:14:19;1.45;;;1.30;;
56794;SDS011;42678;59.400;18.410;2022-09-13T01:16:48;1.60;;;1.50;;
56794;SDS011;42678;59.400;18.410;2022-09-13T01:19:14;1.85;;;1.30;;
56794;SDS011;42678;59.400;18.410;2022-09-13T01:29:56;3.03;;;1.50;;
56794;SDS011;42678;59.400;18.410;2022-09-13T01:38:41;7.70;;;1.70;;
56794;SDS011;42678;59.400;18.410;2022-09-13T01:49:58;3.00;;;1.60;;
56794;SDS011;42678;59.400;18.410;2022-09-13T01:52:41;2.55;;;1.77;;
56794;SDS011;42678;59.400;18.410;2022-09-13T01:55:47;3.40;;;1.33;;
56794;SDS011;42678;59.400;18.410;2022-09-13T01:58:44;7.40;;;1.60;;
56794;SDS011;42678;59.400;18.410;2022-09-13T02:01:30;3.00;;;1.33;;
56794;SDS011;42678;59.400;18.410;2022-09-13T02:04:05;1.88;;;1.48;;
56794;SDS011;42678;59.400;18.410;2022-09-13T02:06:36;2.03;;;1.50;;
56794;SDS011;42678;59.400;18.410;2022-09-13T02:09:08;2.20;;;1.52;;
56794;SDS011;42678;59.400;18.410;2022-09-13T02:11:38;2.63;;;1.50;;
56794;SDS011;42678;59.400;18.410;2022-09-13T02:16:57;3.78;;;1.45;;
56794;SDS011;42678;59.400;18.410;2022-09-13T02:19:27;2.83;;;2.03;;
56794;SDS011;42678;59.400;18.410;2022-09-13T02:22:00;2.83;;;1.90;;
56794;SDS011;42678;59.400;18.410;2022-09-13T02:24:34;3.78;;;1.50;;
56794;SDS011;42678;59.400;18.410;2022-09-13T02:27:11;4.53;;;1.90;;
56794;SDS011;42678;59.400;18.410;2022-09-13T02:29:44;9.05;;;2.33;;
56794;SDS011;42678;59.400;18.410;2022-09-13T02:32:21;4.55;;;1.45;;
56794;SDS011;42678;59.400;18.410;2022-09-13T02:34:59;5.75;;;2.33;;
56794;SDS011;42678;59.400;18.410;2022-09-13T02:37:30;2.15;;;1.55;;
56794;SDS011;42678;59.400;18.410;2022-09-13T02:40:00;2.45;;;1.35;;
56794;SDS011;42678;59.400;18.410;2022-09-13T02:42:30;5.35;;;2.03;;
56794;SDS011;42678;59.400;18.410;2022-09-13T02:45:37;2.50;;;1.42;;
56794;SDS011;42678;59.400;18.410;2022-09-13T02:48:39;2.53;;;1.48;;
56794;SDS011;42678;59.400;18.410;2022-09-13T02:51:18;3.42;;;1.83;;
56794;SDS011;42678;59.400;18.410;2022-09-13T02:54:13;2.92;;;1.63;;
56794;SDS011;42678;59.400;18.410;2022-09-13T02:56:50;5.28;;;2.45;;
56794;SDS011;42678;59.400;18.410;2022-09-13T02:59:21;2.97;;;1.63;;
56794;SDS011;42678;59.400;18.410;2022-09-13T03:02:05;2.75;;;1.95;;
56794;SDS011;42678;59.400;18.410;2022-09-13T03:04:34;2.70;;;1.88;;
56794;SDS011;42678;59.400;18.410;2022-09-13T03:07:00;3.28;;;1.60;;
56794;SDS011;42678;59.400;18.410;2022-09-13T03:09:28;5.70;;;1.67;;
56794;SDS011;42678;59.400;18.410;2022-09-13T03:12:00;4.45;;;2.42;;
56794;SDS011;42678;59.400;18.410;2022-09-13T03:18:06;2.88;;;2.08;;
56794;SDS011;42678;59.400;18.410;2022-09-13T03:29:08;3.17;;;1.70;;
56794;SDS011;42678;59.400;18.410;2022-09-13T03:34:52;5.07;;;1.80;;
56794;SDS011;42678;59.400;18.410;2022-09-13T03:40:21;2.72;;;1.70;;
56794;SDS011;42678;59.400;18.410;2022-09-13T03:42:55;2.47;;;1.95;;
56794;SDS011;42678;59.400;18.410;2022-09-13T03:45:52;4.38;;;2.10;;
56794;SDS011;42678;59.400;18.410;2022-09-13T03:48:21;1.90;;;1.60;;
56794;SDS011;42678;59.400;18.410;2022-09-13T03:50:48;5.07;;;2.08;;
56794;SDS011;42678;59.400;18.410;2022-09-13T03:53:22;5.18;;;2.42;;
56794;SDS011;42678;59.400;18.410;2022-09-13T03:55:51;3.42;;;1.85;;
56794;SDS011;42678;59.400;18.410;2022-09-13T03:58:18;3.80;;;1.80;;
56794;SDS011;42678;59.400;18.410;2022-09-13T04:00:44;2.35;;;1.52;;
56794;SDS011;42678;59.400;18.410;2022-09-13T04:03:13;5.38;;;2.33;;
56794;SDS011;42678;59.400;18.410;2022-09-13T04:05:39;3.35;;;2.10;;
56794;SDS011;42678;59.400;18.410;2022-09-13T04:08:05;6.25;;;2.60;;
56794;SDS011;42678;59.400;18.410;2022-09-13T04:10:33;6.18;;;1.80;;
56794;SDS011;42678;59.400;18.410;2022-09-13T04:13:00;4.65;;;2.25;;
56794;SDS011;42678;59.400;18.410;2022-09-13T04:15:26;3.50;;;1.98;;
56794;SDS011;42678;59.400;18.410;2022-09-13T04:17:53;3.00;;;1.90;;
56794;SDS011;42678;59.400;18.410;2022-09-13T04:20:18;2.33;;;1.50;;
56794;SDS011;42678;59.400;18.410;2022-09-13T04:22:51;3.83;;;2.45;;
56794;SDS011;42678;59.400;18.410;2022-09-13T04:25:21;7.75;;;2.53;;
56794;SDS011;42678;59.400;18.410;2022-09-13T04:27:48;5.35;;;2.17;;
56794;SDS011;42678;59.400;18.410;2022-09-13T04:30:19;2.58;;;1.75;;
56794;SDS011;42678;59.400;18.410;2022-09-13T04:32:45;3.90;;;1.98;;
56794;SDS011;42678;59.400;18.410;2022-09-13T04:35:11;4.45;;;2.20;;
56794;SDS011;42678;59.400;18.410;2022-09-13T04:37:37;3.60;;;1.60;;
56794;SDS011;42678;59.400;18.410;2022-09-13T04:40:04;5.18;;;2.28;;
56794;SDS011;42678;59.400;18.410;2022-09-13T04:42:30;5.80;;;2.08;;
56794;SDS011;42678;59.400;18.410;2022-09-13T04:44:56;5.65;;;2.25;;
56794;SDS011;42678;59.400;18.410;2022-09-13T04:47:22;5.13;;;2.33;;
56794;SDS011;42678;59.400;18.410;2022-09-13T04:49:48;3.60;;;2.47;;
56794;SDS011;42678;59.400;18.410;2022-09-13T04:52:13;1.98;;;1.27;;
56794;SDS011;42678;59.400;18.410;2022-09-13T04:54:39;3.45;;;1.77;;
56794;SDS011;42678;59.400;18.410;2022-09-13T04:57:05;4.90;;;2.20;;
56794;SDS011;42678;59.400;18.410;2022-09-13T04:59:30;5.03;;;2.25;;
56794;SDS011;42678;59.400;18.410;2022-09-13T05:01:56;3.03;;;2.08;;
56794;SDS011;42678;59.400;18.410;2022-09-13T05:04:22;4.65;;;1.92;;
56794;SDS011;42678;59.400;18.410;2022-09-13T05:06:47;4.00;;;2.13;;
56794;SDS011;42678;59.400;18.410;2022-09-13T05:09:13;2.30;;;1.95;;
56794;SDS011;42678;59.400;18.410;2022-09-13T05:11:40;5.28;;;2.10;;
56794;SDS011;42678;59.400;18.410;2022-09-13T05:14:08;2.40;;;1.60;;
56794;SDS011;42678;59.400;18.410;2022-09-13T05:16:35;1.35;;;1.20;;
56794;SDS011;42678;59.400;18.410;2022-09-13T05:19:01;4.10;;;2.10;;
56794;SDS011;42678;59.400;18.410;2022-09-13T05:21:27;2.17;;;1.45;;
56794;SDS011;42678;59.400;18.410;2022-09-13T05:23:54;3.90;;;2.42;;
56794;SDS011;42678;59.400;18.410;2022-09-13T05:26:22;5.32;;;1.52;;
56794;SDS011;42678;59.400;18.410;2022-09-13T05:28:49;2.80;;;1.13;;
56794;SDS011;42678;59.400;18.410;2022-09-13T05:31:16;4.85;;;2.08;;
56794;SDS011;42678;59.400;18.410;2022-09-13T05:33:43;5.05;;;2.22;;
56794;SDS011;42678;59.400;18.410;2022-09-13T05:36:11;3.55;;;1.75;;
56794;SDS011;42678;59.400;18.410;2022-09-13T05:38:36;4.22;;;2.20;;
56794;SDS011;42678;59.400;18.410;2022-09-13T05:41:04;4.10;;;2.33;;
56794;SDS011;42678;59.400;18.410;2022-09-13T05:43:31;3.30;;;1.80;;
56794;SDS011;42678;59.400;18.410;2022-09-13T05:46:02;2.75;;;1.60;;
56794;SDS011;42678;59.400;18.410;2022-09-13T05:48:30;3.03;;;1.92;;
56794;SDS011;42678;59.400;18.410;2022-09-13T05:51:02;3.53;;;1.95;;
56794;SDS011;42678;59.400;18.410;2022-09-13T05:53:30;2.92;;;1.70;;
56794;SDS011;42678;59.400;18.410;2022-09-13T05:55:57;2.53;;;1.70;;
56794;SDS011;42678;59.400;18.410;2022-09-13T05:58:23;6.85;;;2.42;;
56794;SDS011;42678;59.400;18.410;2022-09-13T06:00:52;5.63;;;1.80;;
56794;SDS011;42678;59.400;18.410;2022-09-13T06:03:19;3.53;;;1.65;;
56794;SDS011;42678;59.400;18.410;2022-09-13T06:05:46;4.97;;;2.17;;
56794;SDS011;42678;59.400;18.410;2022-09-13T06:08:11;2.88;;;1.38;;
56794;SDS011;42678;59.400;18.410;2022-09-13T06:10:37;2.92;;;1.70;;
56794;SDS011;42678;59.400;18.410;2022-09-13T06:13:03;7.50;;;1.42;;
56794;SDS011;42678;59.400;18.410;2022-09-13T06:15:28;2.60;;;1.40;;
56794;SDS011;42678;59.400;18.410;2022-09-13T06:17:54;3.22;;;1.83;;
56794;SDS011;42678;59.400;18.410;2022-09-13T06:20:20;3.53;;;1.83;;
56794;SDS011;42678;59.400;18.410;2022-09-13T06:22:48;4.40;;;1.75;;
56794;SDS011;42678;59.400;18.410;2022-09-13T06:25:14;5.63;;;1.90;;
56794;SDS011;42678;59.400;18.410;2022-09-13T06:27:40;10.00;;;2.65;;
56794;SDS011;42678;59.400;18.410;2022-09-13T06:30:06;3.60;;;1.73;;
56794;SDS011;42678;59.400;18.410;2022-09-13T06:32:33;2.22;;;1.63;;
56794;SDS011;42678;59.400;18.410;2022-09-13T06:34:59;1.70;;;1.08;;
56794;SDS011;42678;59.400;18.410;2022-09-13T06:37:25;2.85;;;1.73;;
56794;SDS011;42678;59.400;18.410;2022-09-13T06:39:51;3.53;;;1.23;;
56794;SDS011;42678;59.400;18.410;2022-09-13T06:42:16;3.22;;;1.40;;
56794;SDS011;42678;59.400;18.410;2022-09-13T06:44:42;3.92;;;1.20;;
56794;SDS011;42678;59.400;18.410;2022-09-13T06:47:10;2.63;;;1.42;;
56794;SDS011;42678;59.400;18.410;2022-09-13T06:49:37;7.18;;;3.97;;
56794;SDS011;42678;59.400;18.410;2022-09-13T06:52:03;6.80;;;2.20;;
56794;SDS011;42678;59.400;18.410;2022-09-13T06:54:29;4.13;;;1.80;;
56794;SDS011;42678;59.400;18.410;2022-09-13T06:56:55;2.92;;;1.67;;
56794;SDS011;42678;59.400;18.410;2022-09-13T06:59:21;1.98;;;1.15;;
56794;SDS011;42678;59.400;18.410;2022-09-13T07:01:46;3.80;;;1.90;;
56794;SDS011;42678;59.400;18.410;2022-09-13T07:04:14;1.52;;;0.77;;
56794;SDS011;42678;59.400;18.410;2022-09-13T07:06:44;3.75;;;2.08;;
56794;SDS011;42678;59.400;18.410;2022-09-13T07:09:16;4.97;;;1.50;;
56794;SDS011;42678;59.400;18.410;2022-09-13T07:11:44;2.15;;;1.00;;
56794;SDS011;42678;59.400;18.410;2022-09-13T07:14:15;3.20;;;1.65;;
56794;SDS011;42678;59.400;18.410;2022-09-13T07:16:45;7.05;;;2.30;;
56794;SDS011;42678;59.400;18.410;2022-09-13T07:19:15;5.80;;;2.63;;
56794;SDS011;42678;59.400;18.410;2022-09-13T07:21:48;4.35;;;1.73;;
56794;SDS011;42678;59.400;18.410;2022-09-13T07:24:15;5.63;;;3.17;;
56794;SDS011;42678;59.400;18.410;2022-09-13T07:26:42;7.65;;;3.17;;
56794;SDS011;42678;59.400;18.410;2022-09-13T07:29:09;5.03;;;3.33;;
56794;SDS011;42678;59.400;18.410;2022-09-13T07:31:38;5.57;;;3.08;;
56794;SDS011;42678;59.400;18.410;2022-09-13T07:34:06;7.38;;;3.60;;
56794;SDS011;42678;59.400;18.410;2022-09-13T07:36:36;6.10;;;3.17;;
56794;SDS011;42678;59.400;18.410;2022-09-13T07:39:02;5.05;;;2.85;;
56794;SDS011;42678;59.400;18.410;2022-09-13T07:41:29;8.90;;;2.67;;
56794;SDS011;42678;59.400;18.410;2022-09-13T07:43:57;7.47;;;3.35;;
56794;SDS011;42678;59.400;18.410;2022-09-13T07:46:25;6.47;;;3.28;;
56794;SDS011;42678;59.400;18.410;2022-09-13T07:48:58;6.88;;;4.10;;
56794;SDS011;42678;59.400;18.410;2022-09-13T07:51:26;9.60;;;3.97;;
56794;SDS011;42678;59.400;18.410;2022-09-13T07:53:59;15.10;;;6.63;;
56794;SDS011;42678;59.400;18.410;2022-09-13T07:56:29;12.63;;;6.25;;
56794;SDS011;42678;59.400;18.410;2022-09-13T07:58:57;16.25;;;8.18;;
56794;SDS011;42678;59.400;18.410;2022-09-13T08:01:36;12.27;;;7.57;;
56794;SDS011;42678;59.400;18.410;2022-09-13T08:04:04;16.27;;;6.75;;
56794;SDS011;42678;59.400;18.410;2022-09-13T08:06:38;2.10;;;1.63;;
56794;SDS011;42678;59.400;18.410;2022-09-13T08:09:05;0.15;;;0.15;;
56794;SDS011;42678;59.400;18.410;2022-09-13T08:11:33;0.10;;;0.10;;
56794;SDS011;42678;59.400;18.410;2022-09-13T08:14:01;0.10;;;0.10;;
56794;SDS011;42678;59.400;18.410;2022-09-13T08:16:28;0.17;;;0.17;;
56794;SDS011;42678;59.400;18.410;2022-09-13T08:18:55;0.10;;;0.10;;
56794;SDS011;42678;59.400;18.410;2022-09-13T08:21:22;0.68;;;0.55;;
56794;SDS011;42678;59.400;18.410;2022-09-13T08:23:53;2.42;;;0.88;;
56794;SDS011;42678;59.400;18.410;2022-09-13T08:26:20;0.10;;;0.10;;
56794;SDS011;42678;59.400;18.410;2022-09-13T08:28:46;0.10;;;0.10;;
56794;SDS011;42678;59.400;18.410;2022-09-13T08:31:12;0.20;;;0.20;;
56794;SDS011;42678;59.400;18.410;2022-09-13T08:33:44;2.72;;;0.77;;
56794;SDS011;42678;59.400;18.410;2022-09-13T08:36:12;0.10;;;0.10;;
56794;SDS011;42678;59.400;18.410;2022-09-13T08:38:44;0.00;;;0.00;;
56794;SDS011;42678;59.400;18.410;2022-09-13T08:41:26;0.10;;;0.10;;
56794;SDS011;42678;59.400;18.410;2022-09-13T08:45:12;0.32;;;0.32;;
56794;SDS011;42678;59.400;18.410;2022-09-13T08:55:31;0.00;;;0.00;;
56794;SDS011;42678;59.400;18.410;2022-09-13T08:58:10;3.70;;;0.30;;
56794;SDS011;42678;59.400;18.410;2022-09-13T09:03:56;0.10;;;0.10;;
56794;SDS011;42678;59.400;18.410;2022-09-13T09:06:32;0.68;;;0.43;;
56794;SDS011;42678;59.400;18.410;2022-09-13T09:11:45;0.20;;;0.20;;
56794;SDS011;42678;59.400;18.410;2022-09-13T09:16:57;0.55;;;0.50;;
56794;SDS011;42678;59.400;18.410;2022-09-13T09:19:29;0.10;;;0.10;;
56794;SDS011;42678;59.400;18.410;2022-09-13T09:22:18;0.10;;;0.10;;
56794;SDS011;42678;59.400;18.410;2022-09-13T09:24:54;0.80;;;0.75;;
56794;SDS011;42678;59.400;18.410;2022-09-13T09:27:21;0.30;;;0.30;;
56794;SDS011;42678;59.400;18.410;2022-09-13T09:29:48;0.20;;;0.20;;
56794;SDS011;42678;59.400;18.410;2022-09-13T09:35:09;1.17;;;0.65;;
56794;SDS011;42678;59.400;18.410;2022-09-13T09:37:44;0.25;;;0.22;;
56794;SDS011;42678;59.400;18.410;2022-09-13T09:40:21;0.20;;;0.20;;
56794;SDS011;42678;59.400;18.410;2022-09-13T09:42:47;0.40;;;0.40;;
56794;SDS011;42678;59.400;18.410;2022-09-13T09:45:24;0.55;;;0.55;;
56794;SDS011;42678;59.400;18.410;2022-09-13T09:47:59;0.20;;;0.20;;
56794;SDS011;42678;59.400;18.410;2022-09-13T09:50:32;0.17;;;0.17;;
56794;SDS011;42678;59.400;18.410;2022-09-13T09:55:30;0.35;;;0.25;;
56794;SDS011;42678;59.400;18.410;2022-09-13T09:58:00;0.15;;;0.15;;
56794;SDS011;42678;59.400;18.410;2022-09-13T10:00:31;0.20;;;0.20;;
56794;SDS011;42678;59.400;18.410;2022-09-13T10:03:14;1.20;;;0.43;;
56794;SDS011;42678;59.400;18.410;2022-09-13T10:05:43;0.10;;;0.10;;
56794;SDS011;42678;59.400;18.410;2022-09-13T10:08:22;0.25;;;0.25;;
56794;SDS011;42678;59.400;18.410;2022-09-13T10:10:53;0.70;;;0.70;;
56794;SDS011;42678;59.400;18.410;2022-09-13T10:13:21;0.57;;;0.57;;
56794;SDS011;42678;59.400;18.410;2022-09-13T10:15:55;0.45;;;0.43;;
56794;SDS011;42678;59.400;18.410;2022-09-13T10:18:27;3.22;;;3.13;;
56794;SDS011;42678;59.400;18.410;2022-09-13T10:21:04;0.52;;;0.30;;
56794;SDS011;42678;59.400;18.410;2022-09-13T10:23:32;1.20;;;1.00;;
56794;SDS011;42678;59.400;18.410;2022-09-13T10:26:01;0.30;;;0.30;;
56794;SDS011;42678;59.400;18.410;2022-09-13T10:28:42;1.55;;;1.00;;
56794;SDS011;42678;59.400;18.410;2022-09-13T10:31:13;0.77;;;0.35;;
56794;SDS011;42678;59.400;18.410;2022-09-13T10:36:19;0.43;;;0.25;;
56794;SDS011;42678;59.400;18.410;2022-09-13T10:38:56;4.88;;;0.20;;
56794;SDS011;42678;59.400;18.410;2022-09-13T10:41:26;0.20;;;0.20;;
56794;SDS011;42678;59.400;18.410;2022-09-13T10:43:58;1.55;;;0.75;;
56794;SDS011;42678;59.400;18.410;2022-09-13T10:46:26;0.32;;;0.17;;
56794;SDS011;42678;59.400;18.410;2022-09-13T10:48:55;0.32;;;0.32;;
56794;SDS011;42678;59.400;18.410;2022-09-13T10:51:30;0.55;;;0.55;;
56794;SDS011;42678;59.400;18.410;2022-09-13T10:54:07;0.45;;;0.45;;
56794;SDS011;42678;59.400;18.410;2022-09-13T10:56:39;1.48;;;1.30;;
56794;SDS011;42678;59.400;18.410;2022-09-13T10:59:23;2.10;;;2.05;;
56794;SDS011;42678;59.400;18.410;2022-09-13T11:10:11;0.85;;;0.85;;
56794;SDS011;42678;59.400;18.410;2022-09-13T11:15:44;0.20;;;0.20;;
56794;SDS011;42678;59.400;18.410;2022-09-13T11:18:19;0.35;;;0.15;;
56794;SDS011;42678;59.400;18.410;2022-09-13T11:24:00;0.47;;;0.47;;
56794;SDS011;42678;59.400;18.410;2022-09-13T11:29:19;0.20;;;0.20;;
56794;SDS011;42678;59.400;18.410;2022-09-13T11:38:03;1.13;;;1.02;;
56794;SDS011;42678;59.400;18.410;2022-09-13T11:46:17;0.13;;;0.13;;
56794;SDS011;42678;59.400;18.410;2022-09-13T11:57:00;0.35;;;0.28;;
56794;SDS011;42678;59.400;18.410;2022-09-13T12:01:58;0.20;;;0.20;;
56794;SDS011;42678;59.400;18.410;2022-09-13T12:04:36;5.90;;;0.98;;
56794;SDS011;42678;59.400;18.410;2022-09-13T12:07:14;1.40;;;0.82;;
56794;SDS011;42678;59.400;18.410;2022-09-13T12:09:54;0.80;;;0.80;;
56794;SDS011;42678;59.400;18.410;2022-09-13T12:12:29;13.40;;;6.03;;
56794;SDS011;42678;59.400;18.410;2022-09-13T12:15:05;6.68;;;3.83;;
56794;SDS011;42678;59.400;18.410;2022-09-13T12:17:43;10.18;;;4.55;;
56794;SDS011;42678;59.400;18.410;2022-09-13T12:25:20;3.33;;;2.28;;
56794;SDS011;42678;59.400;18.410;2022-09-13T12:27:58;10.02;;;4.97;;
56794;SDS011;42678;59.400;18.410;2022-09-13T12:33:37;10.98;;;5.28;;
56794;SDS011;42678;59.400;18.410;2022-09-13T12:44:40;17.98;;;5.03;;
56794;SDS011;42678;59.400;18.410;2022-09-13T13:01:12;17.85;;;10.15;;
56794;SDS011;42678;59.400;18.410;2022-09-13T13:06:55;14.60;;;9.40;;
56794;SDS011;42678;59.400;18.410;2022-09-13T13:09:35;15.88;;;9.27;;
56794;SDS011;42678;59.400;18.410;2022-09-13T13:14:56;21.63;;;9.88;;
56794;SDS011;42678;59.400;18.410;2022-09-13T13:17:43;13.20;;;8.57;;
56794;SDS011;42678;59.400;18.410;2022-09-13T13:23:15;5.18;;;3.20;;
56794;SDS011;42678;59.400;18.410;2022-09-13T13:31:10;18.17;;;8.75;;
56794;SDS011;42678;59.400;18.410;2022-09-13T13:34:24;19.45;;;7.47;;
56794;SDS011;42678;59.400;18.410;2022-09-13T13:37:01;0.73;;;0.73;;
56794;SDS011;42678;59.400;18.410;2022-09-13T13:49:45;23.58;;;13.27;;
56794;SDS011;42678;59.400;18.410;2022-09-13T13:57:25;10.27;;;5.03;;
56794;SDS011;42678;59.400;18.410;2022-09-13T14:00:18;9.48;;;4.40;;
56794;SDS011;42678;59.400;18.410;2022-09-13T14:13:29;10.40;;;5.80;;
56794;SDS011;42678;59.400;18.410;2022-09-13T14:16:12;12.05;;;6.53;;
56794;SDS011;42678;59.400;18.410;2022-09-13T14:21:43;3.88;;;2.65;;
56794;SDS011;42678;59.400;18.410;2022-09-13T14:24:16;7.88;;;3.25;;
56794;SDS011;42678;59.400;18.410;2022-09-13T14:26:48;7.63;;;4.10;;
56794;SDS011;42678;59.400;18.410;2022-09-13T14:29:20;9.82;;;4.60;;
56794;SDS011;42678;59.400;18.410;2022-09-13T14:31:51;9.50;;;3.35;;
56794;SDS011;42678;59.400;18.410;2022-09-13T14:34:29;3.75;;;2.88;;
56794;SDS011;42678;59.400;18.410;2022-09-13T14:36:58;6.68;;;3.65;;
56794;SDS011;42678;59.400;18.410;2022-09-13T14:39:26;5.47;;;3.28;;
56794;SDS011;42678;59.400;18.410;2022-09-13T14:42:00;6.15;;;3.05;;
56794;SDS011;42678;59.400;18.410;2022-09-13T14:44:42;3.42;;;2.13;;
56794;SDS011;42678;59.400;18.410;2022-09-13T14:50:07;7.05;;;3.88;;
56794;SDS011;42678;59.400;18.410;2022-09-13T14:52:47;4.95;;;2.15;;
56794;SDS011;42678;59.400;18.410;2022-09-13T14:55:17;3.40;;;1.75;;
56794;SDS011;42678;59.400;18.410;2022-09-13T14:57:51;5.10;;;2.10;;
56794;SDS011;42678;59.400;18.410;2022-09-13T15:00:22;4.35;;;2.60;;
56794;SDS011;42678;59.400;18.410;2022-09-13T15:02:51;6.68;;;3.05;;
56794;SDS011;42678;59.400;18.410;2022-09-13T15:05:19;9.35;;;2.13;;
56794;SDS011;42678;59.400;18.410;2022-09-13T15:07:51;7.60;;;2.72;;
56794;SDS011;42678;59.400;18.410;2022-09-13T15:13:05;2.83;;;1.63;;
56794;SDS011;42678;59.400;18.410;2022-09-13T15:23:28;3.65;;;1.48;;
56794;SDS011;42678;59.400;18.410;2022-09-13T15:31:10;4.07;;;1.60;;
56794;SDS011;42678;59.400;18.410;2022-09-13T15:33:44;2.80;;;1.00;;
56794;SDS011;42678;59.400;18.410;2022-09-13T15:41:27;3.92;;;1.88;;
56794;SDS011;42678;59.400;18.410;2022-09-13T15:43:56;3.08;;;1.77;;
56794;SDS011;42678;59.400;18.410;2022-09-13T15:46:22;5.05;;;1.60;;
56794;SDS011;42678;59.400;18.410;2022-09-13T15:48:55;3.47;;;1.60;;
56794;SDS011;42678;59.400;18.410;2022-09-13T15:51:23;4.43;;;1.55;;
56794;SDS011;42678;59.400;18.410;2022-09-13T15:53:49;3.70;;;1.48;;
56794;SDS011;42678;59.400;18.410;2022-09-13T15:56:17;5.70;;;1.90;;
56794;SDS011;42678;59.400;18.410;2022-09-13T15:58:44;3.72;;;2.03;;
56794;SDS011;42678;59.400;18.410;2022-09-13T16:01:14;5.97;;;1.90;;
56794;SDS011;42678;59.400;18.410;2022-09-13T16:03:40;4.63;;;1.52;;
56794;SDS011;42678;59.400;18.410;2022-09-13T16:06:07;3.88;;;1.58;;
56794;SDS011;42678;59.400;18.410;2022-09-13T16:08:36;2.30;;;1.48;;
56794;SDS011;42678;59.400;18.410;2022-09-13T16:11:02;3.08;;;1.50;;
56794;SDS011;42678;59.400;18.410;2022-09-13T16:13:29;2.75;;;1.35;;
56794;SDS011;42678;59.400;18.410;2022-09-13T16:15:54;4.15;;;1.73;;
56794;SDS011;42678;59.400;18.410;2022-09-13T16:18:21;8.70;;;1.70;;
56794;SDS011;42678;59.400;18.410;2022-09-13T16:20:47;2.90;;;1.33;;
56794;SDS011;42678;59.400;18.410;2022-09-13T16:23:13;2.78;;;1.50;;
56794;SDS011;42678;59.400;18.410;2022-09-13T16:25:40;5.75;;;1.60;;
56794;SDS011;42678;59.400;18.410;2022-09-13T16:28:06;2.75;;;1.70;;
56794;SDS011;42678;59.400;18.410;2022-09-13T16:30:32;6.10;;;1.83;;
56794;SDS011;42678;59.400;18.410;2022-09-13T16:32:58;3.75;;;1.75;;
56794;SDS011;42678;59.400;18.410;2022-09-13T16:35:27;2.08;;;1.75;;
56794;SDS011;42678;59.400;18.410;2022-09-13T16:37:54;7.90;;;2.42;;
56794;SDS011;42678;59.400;18.410;2022-09-13T16:40:20;7.07;;;1.90;;
56794;SDS011;42678;59.400;18.410;2022-09-13T16:42:46;6.85;;;1.95;;
56794;SDS011;42678;59.400;18.410;2022-09-13T16:45:12;3.75;;;2.03;;
56794;SDS011;42678;59.400;18.410;2022-09-13T16:47:38;5.63;;;2.03;;
56794;SDS011;42678;59.400;18.410;2022-09-13T16:50:05;4.72;;;2.50;;
56794;SDS011;42678;59.400;18.410;2022-09-13T16:52:32;3.75;;;2.35;;
56794;SDS011;42678;59.400;18.410;2022-09-13T16:54:59;5.72;;;2.30;;
56794;SDS011;42678;59.400;18.410;2022-09-13T16:57:25;4.32;;;2.28;;
56794;SDS011;42678;59.400;18.410;2022-09-13T16:59:51;6.38;;;2.30;;
56794;SDS011;42678;59.400;18.410;2022-09-13T17:02:19;6.60;;;2.63;;
56794;SDS011;42678;59.400;18.410;2022-09-13T17:04:45;4.35;;;2.08;;
56794;SDS011;42678;59.400;18.410;2022-09-13T17:07:11;4.30;;;2.42;;
56794;SDS011;42678;59.400;18.410;2022-09-13T17:09:38;6.05;;;2.15;;
56794;SDS011;42678;59.400;18.410;2022-09-13T17:12:08;4.88;;;2.90;;
56794;SDS011;42678;59.400;18.410;2022-09-13T17:14:36;3.67;;;2.10;;
56794;SDS011;42678;59.400;18.410;2022-09-13T17:17:03;6.13;;;2.65;;
56794;SDS011;42678;59.400;18.410;2022-09-13T17:19:29;3.78;;;2.35;;
56794;SDS011;42678;59.400;18.410;2022-09-13T17:22:00;5.15;;;2.25;;
56794;SDS011;42678;59.400;18.410;2022-09-13T17:24:29;8.95;;;2.33;;
56794;SDS011;42678;59.400;18.410;2022-09-13T17:26:56;6.30;;;2.08;;
56794;SDS011;42678;59.400;18.410;2022-09-13T17:29:23;7.18;;;3.13;;
56794;SDS011;42678;59.400;18.410;2022-09-13T17:31:50;5.57;;;2.53;;
56794;SDS011;42678;59.400;18.410;2022-09-13T17:34:16;4.45;;;2.30;;
56794;SDS011;42678;59.400;18.410;2022-09-13T17:36:43;3.42;;;2.00;;
56794;SDS011;42678;59.400;18.410;2022-09-13T17:39:09;7.55;;;2.55;;
56794;SDS011;42678;59.400;18.410;2022-09-13T17:41:35;4.10;;;2.22;;
56794;SDS011;42678;59.400;18.410;2022-09-13T17:44:01;6.78;;;2.95;;
56794;SDS011;42678;59.400;18.410;2022-09-13T17:46:27;7.30;;;3.53;;
56794;SDS011;42678;59.400;18.410;2022-09-13T17:48:55;9.02;;;2.40;;
56794;SDS011;42678;59.400;18.410;2022-09-13T17:51:26;4.00;;;2.80;;
56794;SDS011;42678;59.400;18.410;2022-09-13T17:54:00;5.13;;;2.75;;
56794;SDS011;42678;59.400;18.410;2022-09-13T17:56:32;5.28;;;2.47;;
56794;SDS011;42678;59.400;18.410;2022-09-13T17:59:04;5.50;;;2.70;;
56794;SDS011;42678;59.400;18.410;2022-09-13T18:01:33;5.40;;;2.45;;
56794;SDS011;42678;59.400;18.410;2022-09-13T18:04:00;4.85;;;2.25;;
56794;SDS011;42678;59.400;18.410;2022-09-13T18:06:25;4.00;;;2.38;;
56794;SDS011;42678;59.400;18.410;2022-09-13T18:08:52;5.35;;;2.22;;
56794;SDS011;42678;59.400;18.410;2022-09-13T18:11:19;8.10;;;3.45;;
56794;SDS011;42678;59.400;18.410;2022-09-13T18:13:45;4.65;;;2.67;;
56794;SDS011;42678;59.400;18.410;2022-09-13T18:16:16;5.63;;;2.90;;
56794;SDS011;42678;59.400;18.410;2022-09-13T18:18:44;5.45;;;3.05;;
56794;SDS011;42678;59.400;18.410;2022-09-13T18:21:10;5.85;;;3.15;;
56794;SDS011;42678;59.400;18.410;2022-09-13T18:23:42;7.60;;;3.58;;